TAF

TERMINAL AERODROME FORECAST
STASIUN METEOROLOGI HANG NADIM BATAM

ADDS - METARS form results

(0337 UTC 27 May 2019)
Data provider http://aviationweather.gov/metar/data/
 
METAR text: WIDD 270300Z 12008KT 9999 FEW014 31/26 Q1011 NOSIG
Conditions at: WIDD (HANG NADIM , ID) observed 0300 UTC 27 May 2019
Temperature: 31.0°C (88°F)
Dewpoint: 26.0°C (79°F) [RH = 75%]
Pressure (altimeter): 29.85 inches Hg (1011.0 mb)
Winds: from the ESE (120 degrees) at 9 MPH (8 knots; 4.1 m/s)
Visibility: 6 or more miles (10+ km)
Ceiling: at least 12,000 feet AGL
Clouds: few clouds at 1400 feet AGL
Weather: no significant weather observed at this time

Forecast for: WIDD (HANG NADIM , ID)
Text: TAF WIDD 262300Z 2700/2724 00000KT 9000 FEW014
Forecast period: 0000 to 0100 UTC 27 May 2019
Forecast type: FROM: standard forecast or significant change
Winds: calm
Visibility: 6 miles (9 km)
Ceiling: at least 12,000 feet AGL
Clouds: few clouds at 1400 feet AGL
Weather: no significant weather forecast for this period
Text: BECMG 2701/2703 16007KT SCT014
Forecast period: 0100 UTC 27 May 2019 to 0000 UTC 28 May 2019
Forecast type: BECOMING: Conditions expected to become as follows by 0300 UTC 27 May 2019
Winds: from the SSE (160 degrees) at 8 MPH (7 knots; 3.6 m/s)
Visibility: 6 miles (9 km)
Ceiling: at least 12,000 feet AGL
Clouds: scattered clouds at 1400 feet AGL
Weather: no significant weather forecast for this period

Informasi TAF dapat diakses juga di http://aviation.bmkg.go.id